ilmateenistus.ee keskkonnaagentuur.ee
EETN Tallinna lennuväli
FTEO31 EETN 221700
TAF EETN 221700Z 2218/2318 25006KT CAVOK BECMG 2223/2224 26016KT 3000
    SN BKN015 TEMPO 2300/2303 1200 +SHSN BLSN SCT004 BKN013CB TEMPO
    2302/2311 27018G30KT TEMPO 2303/2306 3000 SG FZRA BKN005 OVC010 BECMG
    2307/2309 9999 NSW BKN008=

METAR EETN 221750Z 25006KT CAVOK M06/M11 Q1040 R08/19//95 NOSIG=
Tallinna lennuväli
EEKA Kärdla lennuväli
FCEO32 EETN 221300 AAA
TAF AMD EEKA 221700Z 2214/2220 CNL=

METAR EEKA 221750Z NIL=
Kärdla lennuväli
EEKE Kuressaare lennuväli
FCEO32 EETN 221500
TAF EEKE 221500Z 2216/2222 30005KT CAVOK BECMG 2219/2221 26015KT=

METAR EEKE 221750Z AUTO 29003KT 9999NDV NCD M05/M11 Q1043=
Kuressaare lennuväli
EEPU Pärnu lennuväli
METAR EEPU 221750Z NIL=
Pärnu lennuväli
EETU Tartu lennuväli
METAR EETU 221750Z AUTO 28003KT 9999 NCD M06/M12 Q1040=
Tartu lennuväli
EEEI Ämari lennuväli
METAR EEEI 221750Z 21006KT CAVOK M06/M12 Q1041 R24/090095 NOSIG=
Ämari lennuväli